Current Weather

New Bedford Rgnl Airport

New Bedford Rgnl Airport, Massachusetts (KEWB)

Report from: Sunday, May 22, 2022 2:53 AM EDT
Current time: Sunday, May 22, 2022 3:32 AM EDT

Nearby weather
Weather history
Weather forecast

Temperature18.3°C (64.9°F)
Dew point16.1°C (61.0°F)
Winds Calm
Visibility10 mi. (16.1 km)
Clouds Sky clear
Altimeter30.00 in.Hg (1016 mB)
Relative humidity87 %
Density altitude549 ft. (167 m)
Sea-level pressure101.6 kPa (1016 mB, 30.00 in.Hg)
Remarks Fully automated report
Automated weather observing station with precipitation discriminator
Flight conditions Visual Meteorological Conditions
Raw dataKEWB 220653Z AUTO 00000KT 10SM CLR 18/16 A3000 RMK AO2 SLP158 T01830161
An error has occurred. This application may no longer respond until reloaded. Reload 🗙